Time;durP1;ratioP1;P1;durP2;ratioP2;P2;SDS_P1;SDS_P2;PMS_P1;PMS_P2;Temp;Humidity;BMP_temperature;BMP_pressure;BME280_temperature;BME280_humidity;BME280_pressure;Samples;Min_cycle;Max_cycle;Signal;HPM_P1;HPM_P2
2023/01/12 00:02:13;;;;;;;6.85;1.55;;;;;;;8.26;90.17;100908.38;4853839;29;20054;-70
2023/01/12 00:04:40;;;;;;;8.02;1.33;;;;;;;8.24;90.14;100885.63;4857655;29;20053;-71
2023/01/12 00:07:11;;;;;;;7.47;1.60;;;;;;;8.23;90.50;100883.03;4864892;29;20098;-70
2023/01/12 00:09:38;;;;;;;7.25;1.45;;;;;;;8.26;90.69;100884.72;4864552;29;20114;-70
2023/01/12 00:12:09;;;;;;;7.78;1.65;;;;;;;8.26;90.69;100911.88;4868458;29;20049;-71
2023/01/12 00:14:38;;;;;;;10.45;1.65;;;;;;;8.29;90.66;100900.44;4863633;29;20758;-71
2023/01/12 00:17:07;;;;;;;12.77;2.08;;;;;;;8.30;90.77;100889.03;4870556;29;20086;-72
2023/01/12 00:19:37;;;;;;;12.80;1.80;;;;;;;8.30;90.60;100889.03;4868161;29;20049;-73
2023/01/12 00:22:10;;;;;;;10.30;1.80;;;;;;;8.27;90.87;100871.59;4869732;29;20045;-73
2023/01/12 01:08:11;;;;;;;11.75;2.20;;;;;;;8.24;93.01;100858.50;4863326;29;20621;-73
2023/01/12 01:10:38;;;;;;;10.85;1.75;;;;;;;8.24;92.98;100848.84;4874675;29;20048;-74
2023/01/12 01:13:05;;;;;;;10.00;2.15;;;;;;;8.27;92.99;100853.22;4873152;29;20045;-74
2023/01/12 01:15:32;;;;;;;7.55;1.80;;;;;;;8.26;93.08;100850.59;4868578;29;20053;-75
2023/01/12 01:17:59;;;;;;;12.07;2.03;;;;;;;8.25;93.29;100841.88;4879607;29;20049;-75
2023/01/12 01:20:26;;;;;;;10.00;2.10;;;;;;;8.29;93.20;100850.53;4857726;29;20042;-75
2023/01/12 01:22:53;;;;;;;10.27;1.75;;;;;;;8.29;93.54;100847.91;4860142;29;20490;-74
2023/01/12 01:25:20;;;;;;;8.32;1.80;;;;;;;8.30;93.55;100834.72;4874851;29;20046;-70
2023/01/12 01:27:47;;;;;;;11.40;2.35;;;;;;;8.32;93.66;100832.94;4874643;29;20037;-71
2023/01/12 01:30:14;;;;;;;11.43;2.20;;;;;;;8.32;93.54;100826.84;4861564;29;20046;-70
2023/01/12 01:32:41;;;;;;;14.52;2.20;;;;;;;8.32;93.78;100826.84;4855146;29;20507;-70
2023/01/12 01:35:08;;;;;;;10.85;2.20;;;;;;;8.32;93.72;100830.31;4857301;29;20577;-70
2023/01/12 01:37:35;;;;;;;11.73;2.55;;;;;;;8.34;94.10;100820.66;4856603;29;20125;-70
2023/01/12 01:40:03;;;;;;;10.80;2.10;;;;;;;8.35;94.08;100821.50;4857209;29;20049;-71
2023/01/12 01:42:30;;;;;;;7.80;1.98;;;;;;;8.36;94.23;100826.75;4856181;29;20058;-71
2023/01/12 01:45:01;;;;;;;9.55;2.00;;;;;;;8.36;94.18;100818.88;4856298;29;20048;-70
2023/01/12 01:47:39;;;;;;;14.68;2.88;;;;;;;8.37;94.33;100815.34;4871986;29;20426;-75
2023/01/12 01:50:25;;;;;;;10.98;2.40;;;;;;;8.37;94.51;100811.84;4864228;29;20101;-77
2023/01/12 01:53:02;;;;;;;11.15;2.10;;;;;;;8.37;94.43;100814.47;4873658;29;20100;-71
2023/01/12 01:55:48;;;;;;;12.68;2.33;;;;;;;8.36;94.67;100810.97;4874416;29;20046;-71
2023/01/12 01:58:27;;;;;;;13.10;2.30;;;;;;;8.34;94.79;100802.25;4875079;29;20056;-71
2023/01/12 02:00:55;;;;;;;13.18;2.33;;;;;;;8.36;94.97;100803.09;4873389;29;20056;-71
2023/01/12 02:03:24;;;;;;;14.68;2.58;;;;;;;8.37;95.02;100801.31;4857381;29;20127;-70
2023/01/12 02:05:55;;;;;;;12.85;2.85;;;;;;;8.35;95.02;100796.13;4873525;29;20053;-71
2023/01/12 02:09:06;;;;;;;15.88;2.50;;;;;;;8.34;95.06;100786.50;4872100;29;20057;-71
2023/01/12 02:17:54;;;;;;;11.35;2.22;;;;;;;8.30;95.59;100770.84;4863862;29;20060;-71
2023/01/12 02:20:49;;;;;;;10.60;2.15;;;;;;;8.28;95.66;100763.00;4869054;29;20041;-71
2023/01/12 02:24:03;;;;;;;12.15;2.05;;;;;;;8.28;95.72;100762.13;4865419;29;20042;-72
2023/01/12 02:26:44;;;;;;;10.18;2.30;;;;;;;8.27;96.13;100757.78;4868426;29;20088;-71
2023/01/12 02:29:53;;;;;;;15.55;2.47;;;;;;;8.27;96.12;100753.41;4870560;29;20078;-71
2023/01/12 02:32:57;;;;;;;11.43;2.38;;;;;;;8.30;96.14;100753.31;4874013;29;20959;-71
2023/01/12 02:35:49;;;;;;;16.02;3.03;;;;;;;8.31;96.47;100748.94;4874580;29;20048;-70
2023/01/12 02:38:40;;;;;;;16.02;2.88;;;;;;;8.31;96.30;100747.16;4860946;29;20041;-70
2023/01/12 02:44:33;;;;;;;12.48;2.63;;;;;;;8.29;96.41;100742.84;4855319;29;20057;-70
2023/01/12 02:47:08;;;;;;;15.13;2.95;;;;;;;8.32;96.66;100733.13;4869774;29;20072;-71
2023/01/12 02:49:46;;;;;;;13.90;2.40;;;;;;;8.33;96.63;100723.50;4869532;29;20136;-71
2023/01/12 02:52:22;;;;;;;14.52;2.70;;;;;;;8.33;96.77;100728.75;4869557;29;20098;-70
2023/01/12 02:54:53;;;;;;;16.88;2.95;;;;;;;8.32;96.68;100717.38;4873012;29;20076;-70
2023/01/12 02:57:25;;;;;;;17.58;2.88;;;;;;;8.33;96.54;100716.47;4858674;29;20056;-70
2023/01/12 02:59:55;;;;;;;15.85;2.70;;;;;;;8.36;96.67;100723.41;4872272;29;20046;-71
2023/01/12 03:02:26;;;;;;;18.23;2.90;;;;;;;8.36;96.65;100711.16;4867311;29;20081;-73
2023/01/12 03:04:54;;;;;;;16.40;2.83;;;;;;;8.36;96.42;100713.78;4873984;29;20049;-72
2023/01/12 03:07:43;;;;;;;11.75;2.80;;;;;;;8.37;96.60;100718.16;4855789;29;20046;-73
2023/01/12 03:10:41;;;;;;;17.63;2.90;;;;;;;8.39;96.51;100705.81;4860546;29;20679;-72
2023/01/12 03:13:15;;;;;;;13.40;2.42;;;;;;;8.38;96.52;100703.22;4864637;29;20137;-73
2023/01/12 03:15:48;;;;;;;12.77;2.55;;;;;;;8.38;96.37;100687.47;4872563;29;20492;-72
2023/01/12 03:18:43;;;;;;;13.43;2.70;;;;;;;8.39;96.34;100691.84;4861584;29;20045;-74
2023/01/12 03:21:44;;;;;;;16.33;2.53;;;;;;;8.39;96.34;100687.44;4860931;29;20058;-73
2023/01/12 03:24:17;;;;;;;17.30;2.42;;;;;;;8.37;96.37;100689.25;4873749;29;20106;-73
2023/01/12 03:26:56;;;;;;;13.48;2.42;;;;;;;8.40;96.63;100694.41;4873414;29;20054;-74
2023/01/12 03:29:42;;;;;;;15.02;2.67;;;;;;;8.40;96.34;100681.28;4871528;29;20085;-74
2023/01/12 03:32:09;;;;;;;12.25;1.95;;;;;;;8.39;96.52;100678.69;4866266;29;20061;-73
2023/01/12 03:34:37;;;;;;;13.40;2.70;;;;;;;8.40;96.48;100667.28;4856877;29;20050;-73
2023/01/12 03:37:20;;;;;;;10.75;2.38;;;;;;;8.40;96.64;100657.63;4872405;29;20757;-73
2023/01/12 03:40:02;;;;;;;14.68;2.40;;;;;;;8.43;96.64;100655.84;4872258;29;20109;-73
2023/01/12 03:42:47;;;;;;;11.25;2.53;;;;;;;8.42;96.55;100649.72;4873226;29;20049;-72
2023/01/12 03:45:38;;;;;;;20.27;2.88;;;;;;;8.42;96.40;100639.22;4872819;29;20862;-73
2023/01/12 03:48:17;;;;;;;14.30;2.25;;;;;;;8.42;96.69;100630.47;4860267;29;20058;-74
2023/01/12 03:50:58;;;;;;;14.48;2.30;;;;;;;8.44;96.82;100626.94;4871239;29;20477;-73
2023/01/12 03:53:29;;;;;;;14.65;2.38;;;;;;;8.43;96.58;100624.31;4873856;29;20056;-73
2023/01/12 03:56:03;;;;;;;12.48;1.98;;;;;;;8.42;96.77;100606.81;4869317;29;20054;-73
2023/01/12 03:58:31;;;;;;;;;;;;;;;8.40;96.71;100612.97;4876316;29;20045;-73
2023/01/12 04:00:58;;;;;;;15.07;2.65;;;;;;;8.41;96.63;100592.84;4876015;29;19975;-73
2023/01/12 04:03:26;;;;;;;11.63;2.10;;;;;;;8.41;96.89;100592.84;4860447;29;20532;-73
2023/01/12 04:05:53;;;;;;;11.20;2.17;;;;;;;8.42;96.69;100593.69;4875340;29;20054;-74
2023/01/12 04:08:21;;;;;;;14.00;2.50;;;;;;;8.43;96.74;100585.78;4872693;29;20090;-73
2023/01/12 04:10:48;;;;;;;15.80;2.30;;;;;;;8.42;96.77;100572.66;4864791;29;20136;-73
2023/01/12 04:13:15;;;;;;;16.27;2.58;;;;;;;8.39;96.62;100569.22;4875416;29;20045;-74
2023/01/12 04:15:42;;;;;;;12.02;2.38;;;;;;;8.39;96.94;100563.13;4873312;29;20153;-73
2023/01/12 04:18:11;;;;;;;11.93;1.80;;;;;;;8.37;97.08;100560.53;4868691;29;20053;-73
2023/01/12 04:20:39;;;;;;;11.02;2.05;;;;;;;8.38;97.04;100564.88;4868075;29;20045;-74
2023/01/12 04:23:06;;;;;;;9.98;2.00;;;;;;;8.37;97.05;100543.91;4867085;29;20058;-72
2023/01/12 04:25:33;;;;;;;10.82;1.90;;;;;;;8.35;96.74;100546.56;4875444;29;20076;-72
2023/01/12 04:28:01;;;;;;;8.82;1.85;;;;;;;8.36;97.16;100527.28;4874847;29;20070;-71
2023/01/12 04:30:32;;;;;;;10.70;1.90;;;;;;;8.36;97.17;100529.03;4859843;29;20509;-72
2023/01/12 04:33:06;;;;;;;8.85;1.92;;;;;;;8.35;97.08;100515.06;4870557;29;20068;-73
2023/01/12 04:35:34;;;;;;;8.77;2.10;;;;;;;8.35;97.13;100511.53;4870979;29;20048;-74
2023/01/12 04:38:06;;;;;;;10.18;1.95;;;;;;;8.35;97.10;100493.16;4857577;29;20431;-74
2023/01/12 04:40:33;;;;;;;10.73;1.45;;;;;;;8.36;96.99;100490.50;4862271;29;20053;-74
2023/01/12 04:43:00;;;;;;;10.77;1.80;;;;;;;8.35;97.14;100488.78;4874276;29;20108;-74
2023/01/12 04:45:32;;;;;;;12.07;1.90;;;;;;;8.35;97.09;100478.28;4873891;29;20046;-74
2023/01/12 04:48:03;;;;;;;7.90;1.50;;;;;;;8.35;97.30;100472.16;4870638;29;20042;-73
2023/01/12 04:50:30;;;;;;;7.30;1.90;;;;;;;8.37;97.07;100487.00;4866717;29;20049;-74
2023/01/12 04:53:01;;;;;;;10.00;1.60;;;;;;;8.38;97.18;100470.31;4868984;29;20125;-75
2023/01/12 04:55:28;;;;;;;10.38;1.35;;;;;;;8.37;97.26;100450.22;4875009;29;20049;-73
2023/01/12 04:57:56;;;;;;;8.20;1.60;;;;;;;8.39;97.12;100453.63;4874155;29;20045;-75
2023/01/12 05:00:23;;;;;;;9.88;1.60;;;;;;;8.40;97.11;100446.63;4873554;29;20569;-74
2023/01/12 05:02:58;;;;;;;9.10;2.10;;;;;;;8.41;97.21;100437.84;4870823;29;20054;-75
2023/01/12 05:05:25;;;;;;;;;;;;;;;8.39;97.25;100427.38;4870139;29;20776;-74
2023/01/12 05:10:38;;;;;;;9.35;2.00;;;;;;;8.42;97.31;100425.56;4874556;29;20053;-75
2023/01/12 05:13:05;;;;;;;10.00;1.80;;;;;;;8.40;97.52;100413.34;4875241;29;20053;-74
2023/01/12 05:15:32;;;;;;;9.65;1.50;;;;;;;8.44;97.52;100400.13;4872516;29;20079;-74
2023/01/12 05:17:59;;;;;;;9.98;1.50;;;;;;;8.45;97.61;100392.19;4872591;29;20106;-74
2023/01/12 05:20:26;;;;;;;7.60;1.40;;;;;;;8.49;97.25;100385.97;4874173;29;20070;-75
2023/01/12 05:22:54;;;;;;;6.93;1.42;;;;;;;8.49;97.39;100385.97;4873447;29;20052;-75
2023/01/12 05:25:21;;;;;;;5.72;1.15;;;;;;;8.48;97.10;100388.66;4860617;29;20058;-75
2023/01/12 05:27:48;;;;;;;9.75;1.40;;;;;;;8.50;97.18;100389.47;4874609;29;20041;-74
2023/01/12 05:30:15;;;;;;;8.35;1.50;;;;;;;8.50;97.18;100392.97;4873954;29;20811;-72
2023/01/12 05:32:42;;;;;;;6.20;1.60;;;;;;;8.50;97.11;100384.19;4871201;29;20050;-72
2023/01/12 05:35:09;;;;;;;6.97;1.23;;;;;;;8.53;96.96;100402.50;4867072;29;20854;-72
2023/01/12 05:37:36;;;;;;;6.97;1.17;;;;;;;8.55;96.59;100401.56;4863152;29;20049;-71
2023/01/12 05:40:04;;;;;;;11.23;1.50;;;;;;;8.54;96.76;100389.34;4857106;29;20045;-70
2023/01/12 05:45:17;;;;;;;6.55;1.52;;;;;;;8.62;97.05;100394.38;4868239;29;20053;-77
2023/01/12 05:47:44;;;;;;;7.25;1.88;;;;;;;8.68;96.91;100394.19;4864604;29;20057;-77
2023/01/12 05:50:11;;;;;;;6.25;1.20;;;;;;;8.76;96.82;100374.72;4861522;29;20045;-77
2023/01/12 05:52:38;;;;;;;8.63;1.52;;;;;;;8.83;97.34;100353.44;4868971;29;20526;-76
2023/01/12 05:55:06;;;;;;;8.25;1.13;;;;;;;8.95;96.54;100354.81;4869693;29;20052;-73
2023/01/12 05:57:33;;;;;;;7.22;1.15;;;;;;;8.91;95.55;100378.63;4863685;29;20050;-73
2023/01/12 06:00:00;;;;;;;9.00;1.40;;;;;;;8.86;95.95;100376.16;4864108;29;20114;-78
2023/01/12 06:02:38;;;;;;;7.75;1.50;;;;;;;8.97;96.37;100381.94;4867513;29;20165;-77
2023/01/12 06:05:08;;;;;;;3.88;1.17;;;;;;;9.08;96.28;100349.19;4862650;29;20045;-78
2023/01/12 06:07:36;;;;;;;6.60;1.45;;;;;;;9.13;96.11;100329.72;4876011;29;20046;-77
2023/01/12 06:10:04;;;;;;;9.15;1.30;;;;;;;9.19;95.60;100354.09;4863213;29;20050;-75
2023/01/12 06:15:17;;;;;;;3.67;1.50;;;;;;;9.07;94.68;100352.72;4866902;29;20053;-73
2023/01/12 06:17:44;;;;;;;8.18;1.40;;;;;;;8.95;94.66;100356.63;4866269;29;20128;-72
2023/01/12 06:20:15;;;;;;;6.75;1.25;;;;;;;8.86;95.09;100366.47;4865621;29;20054;-72
2023/01/12 06:22:43;;;;;;;7.75;1.40;;;;;;;8.81;95.31;100349.13;4862024;29;20103;-73
2023/01/12 06:25:11;;;;;;;8.23;1.40;;;;;;;8.75;95.69;100350.16;4857950;29;20434;-72
2023/01/12 06:27:39;;;;;;;8.30;1.27;;;;;;;8.72;95.86;100352.03;4861690;29;20049;-73
2023/01/12 06:30:08;;;;;;;5.88;1.42;;;;;;;8.71;96.22;100353.81;4867388;29;20053;-73
2023/01/12 06:32:35;;;;;;;5.75;1.17;;;;;;;8.72;96.10;100357.28;4866002;29;20128;-72
2023/01/12 06:35:02;;;;;;;7.22;1.50;;;;;;;8.68;96.54;100369.66;4866641;29;20038;-73
2023/01/12 06:37:44;;;;;;;6.57;1.20;;;;;;;8.67;96.42;100357.44;4864065;29;20050;-73
2023/01/12 06:40:12;;;;;;;8.27;1.30;;;;;;;8.65;96.79;100370.63;4870438;29;20051;-72
2023/01/12 06:42:40;;;;;;;10.75;1.23;;;;;;;8.64;97.03;100355.75;4867355;29;20089;-74
2023/01/12 06:45:09;;;;;;;8.63;1.40;;;;;;;8.66;96.89;100368.84;4870774;29;20049;-73
2023/01/12 06:47:48;;;;;;;7.30;1.40;;;;;;;8.67;96.94;100360.06;4862004;29;20105;-73
2023/01/12 06:50:16;;;;;;;6.45;1.42;;;;;;;8.66;97.30;100366.22;4871803;29;20052;-75
2023/01/12 06:52:43;;;;;;;4.15;1.17;;;;;;;8.65;97.23;100357.50;4860864;29;20523;-74
2023/01/12 06:55:10;;;;;;;6.65;1.13;;;;;;;8.68;97.27;100359.16;4863529;29;20048;-74
2023/01/12 06:57:37;;;;;;;8.48;1.60;;;;;;;8.71;97.19;100356.44;4863623;29;20124;-73
2023/01/12 07:00:05;;;;;;;6.55;1.00;;;;;;;8.72;97.38;100365.19;4864718;29;20121;-74
2023/01/12 07:02:33;;;;;;;4.28;1.05;;;;;;;8.73;97.33;100365.16;4857471;29;20582;-74
2023/01/12 07:05:00;;;;;;;6.43;1.05;;;;;;;8.76;97.40;100357.16;4859952;29;20549;-74
2023/01/12 07:07:27;;;;;;;6.57;1.13;;;;;;;8.79;97.38;100369.38;4855547;29;20042;-73
2023/01/12 07:09:54;;;;;;;5.13;1.10;;;;;;;8.77;97.50;100377.28;4860502;29;20045;-74
2023/01/12 07:12:21;;;;;;;4.55;0.88;;;;;;;8.79;97.70;100362.31;4858798;29;20038;-75
2023/01/12 07:14:48;;;;;;;4.80;0.90;;;;;;;8.81;97.47;100367.53;4868645;29;20089;-73
2023/01/12 07:17:15;;;;;;;5.32;0.90;;;;;;;8.85;97.48;100362.13;4866241;29;20845;-73
2023/01/12 07:19:42;;;;;;;2.65;0.60;;;;;;;8.85;97.49;100366.53;4860131;29;20053;-75
2023/01/12 07:22:09;;;;;;;4.68;0.80;;;;;;;8.84;97.59;100360.44;4857202;29;20055;-74
2023/01/12 07:24:36;;;;;;;6.50;0.93;;;;;;;8.84;97.75;100367.44;4873630;29;20053;-75
2023/01/12 07:27:04;;;;;;;5.05;0.70;;;;;;;8.89;97.62;100364.66;4866662;29;20060;-76
2023/01/12 07:29:32;;;;;;;2.85;0.80;;;;;;;8.93;97.71;100363.69;4859135;29;20045;-76
2023/01/12 07:32:00;;;;;;;3.55;0.73;;;;;;;8.93;97.74;100354.00;4855482;29;20132;-75
2023/01/12 07:34:28;;;;;;;2.15;0.60;;;;;;;8.95;97.69;100360.09;4854796;29;20057;-75
2023/01/12 07:36:56;;;;;;;4.65;0.80;;;;;;;8.99;97.49;100372.25;4870965;29;20321;-77
2023/01/12 07:39:23;;;;;;;5.80;0.70;;;;;;;9.00;97.51;100376.56;4872797;29;20054;-76
2023/01/12 07:44:35;;;;;;;1.90;0.50;;;;;;;9.02;97.48;100369.50;4866913;29;20045;-76
2023/01/12 07:47:02;;;;;;;4.45;0.75;;;;;;;9.06;97.35;100375.50;4872879;29;20045;-76
2023/01/12 07:49:29;;;;;;;3.88;0.60;;;;;;;9.07;97.35;100382.50;4864774;29;20046;-76
2023/01/12 07:51:56;;;;;;;2.45;0.55;;;;;;;9.09;97.25;100378.06;4867631;29;20038;-76
2023/01/12 07:54:23;;;;;;;4.20;0.82;;;;;;;9.11;97.18;100389.41;4872877;29;20056;-75
2023/01/12 07:56:51;;;;;;;3.53;0.60;;;;;;;9.13;97.22;100386.72;4862795;29;20176;-76
2023/01/12 07:59:18;;;;;;;2.78;0.60;;;;;;;9.14;97.37;100397.19;4866919;29;21027;-75
2023/01/12 08:01:45;;;;;;;5.43;1.00;;;;;;;9.14;97.30;100406.84;4856453;29;21070;-76
2023/01/12 08:04:12;;;;;;;2.63;0.40;;;;;;;9.17;97.52;100399.72;4863622;29;20054;-77
2023/01/12 08:06:39;;;;;;;3.67;0.60;;;;;;;9.16;97.38;100408.50;4859305;29;20054;-75
2023/01/12 08:09:06;;;;;;;5.45;0.80;;;;;;;9.18;97.54;100408.47;4859115;29;20116;-74
2023/01/12 08:11:33;;;;;;;7.30;1.00;;;;;;;9.18;97.55;100411.09;4872891;29;20049;-75
2023/01/12 08:14:00;;;;;;;2.58;0.60;;;;;;;9.19;97.74;100411.94;4871992;29;20061;-74
2023/01/12 08:16:38;;;;;;;4.03;0.57;;;;;;;9.20;97.78;100413.69;4872441;29;20070;-75
2023/01/12 08:19:16;;;;;;;3.90;0.60;;;;;;;9.22;97.75;100417.13;4867386;29;20045;-74
2023/01/12 08:21:57;;;;;;;2.78;0.73;;;;;;;9.21;97.75;100425.91;4854100;29;20057;-75
2023/01/12 08:24:46;;;;;;;4.65;0.90;;;;;;;9.24;97.87;100421.41;4854812;29;20534;-72
2023/01/12 08:27:20;;;;;;;3.47;0.70;;;;;;;9.25;97.89;100423.16;4863857;29;20046;-75
2023/01/12 08:29:53;;;;;;;1.63;0.57;;;;;;;9.29;98.12;100429.16;4872585;29;20050;-74
2023/01/12 08:32:21;;;;;;;2.83;0.40;;;;;;;9.30;98.01;100428.25;4872825;29;20497;-76
2023/01/12 08:34:52;;;;;;;2.38;0.70;;;;;;;9.30;97.94;100420.38;4872244;29;20058;-76
2023/01/12 08:37:23;;;;;;;2.35;0.60;;;;;;;9.33;98.02;100429.03;4872561;29;20549;-76
2023/01/12 08:39:51;;;;;;;3.75;0.60;;;;;;;9.36;97.70;100427.22;4872208;29;20042;-75
2023/01/12 08:42:19;;;;;;;3.55;0.60;;;;;;;9.37;97.85;100431.56;4873288;29;20065;-76
2023/01/12 08:44:46;;;;;;;2.80;0.60;;;;;;;9.38;97.76;100436.75;4875963;29;20081;-75
2023/01/12 08:47:17;;;;;;;2.05;0.43;;;;;;;9.40;97.82;100439.38;4875309;29;20054;-75
2023/01/12 08:49:45;;;;;;;2.22;0.40;;;;;;;9.39;97.82;100437.66;4866902;29;20065;-75
2023/01/12 08:52:14;;;;;;;3.45;0.50;;;;;;;9.42;97.70;100429.63;4873509;29;20497;-75
2023/01/12 08:54:41;;;;;;;1.58;0.50;;;;;;;9.42;97.78;100429.63;4875972;29;20041;-75
2023/01/12 08:57:08;;;;;;;3.03;0.60;;;;;;;9.46;97.87;100433.91;4866323;29;20132;-75
2023/01/12 08:59:35;;;;;;;1.35;0.52;;;;;;;9.48;97.87;100432.09;4864203;29;20100;-75
2023/01/12 09:02:03;;;;;;;2.05;0.70;;;;;;;9.51;97.76;100434.63;4874682;29;20574;-74
2023/01/12 09:04:30;;;;;;;2.50;0.50;;;;;;;9.55;97.77;100435.38;4875874;29;20060;-74
2023/01/12 09:06:57;;;;;;;1.30;0.50;;;;;;;9.58;97.52;100427.38;4875738;29;20610;-73
2023/01/12 09:09:26;;;;;;;2.40;0.45;;;;;;;9.63;97.31;100441.25;4875416;29;20045;-73
2023/01/12 09:11:53;;;;;;;2.58;0.45;;;;;;;9.63;97.34;100447.34;4875681;29;20142;-73
2023/01/12 09:14:20;;;;;;;2.47;0.50;;;;;;;9.64;97.41;100446.44;4875310;29;20566;-74
2023/01/12 09:16:48;;;;;;;3.10;0.55;;;;;;;9.67;97.39;100445.47;4874549;29;20073;-74
2023/01/12 09:19:15;;;;;;;2.55;0.63;;;;;;;9.69;97.27;100443.66;4873150;29;20050;-75
2023/01/12 09:21:43;;;;;;;2.42;0.40;;;;;;;9.72;97.39;100438.31;4875735;29;20076;-73
2023/01/12 09:24:11;;;;;;;1.10;0.40;;;;;;;9.76;97.02;100442.56;4875193;29;20803;-74
2023/01/12 09:26:45;;;;;;;2.65;0.60;;;;;;;9.81;97.11;100441.53;4874512;29;20136;-75
2023/01/12 09:29:13;;;;;;;;;;;;;;;9.83;96.86;100439.72;4874459;29;20064;-75
2023/01/12 09:31:43;;;;;;;4.53;0.50;;;;;;;9.88;96.84;100453.59;4875473;29;19932;-73
2023/01/12 09:34:11;;;;;;;1.40;0.50;;;;;;;9.92;96.77;100453.41;4874283;29;20041;-73
2023/01/12 09:36:40;;;;;;;2.38;0.70;;;;;;;9.97;97.04;100452.41;4874522;29;20045;-74
2023/01/12 09:39:07;;;;;;;1.67;0.60;;;;;;;10.00;96.66;100449.69;4873648;29;20114;-73
2023/01/12 09:47:53;;;;;;;4.00;0.65;;;;;;;10.06;96.02;100452.97;4873942;29;20069;-73
2023/01/12 09:50:46;;;;;;;1.25;0.30;;;;;;;10.11;96.13;100463.34;4873554;29;20046;-73
2023/01/12 09:53:31;;;;;;;1.23;0.50;;;;;;;10.16;96.13;100461.41;4874203;29;20072;-73
2023/01/12 09:56:17;;;;;;;1.73;0.52;;;;;;;10.19;95.95;100465.69;4874127;29;20169;-73
2023/01/12 09:59:24;;;;;;;1.35;0.40;;;;;;;10.25;95.83;100476.03;4869970;29;20049;-74
2023/01/12 10:01:52;;;;;;;1.83;0.45;;;;;;;10.26;95.92;100483.88;4874769;29;20422;-74
2023/01/12 10:04:20;;;;;;;2.53;0.55;;;;;;;10.28;96.01;100480.34;4874190;29;20668;-73
2023/01/12 10:06:47;;;;;;;2.55;0.40;;;;;;;10.28;95.93;100469.81;4872943;29;20046;-73
2023/01/12 10:09:19;;;;;;;1.08;0.30;;;;;;;10.32;95.93;100472.28;4872730;29;20106;-74
2023/01/12 10:12:04;;;;;;;0.45;0.30;;;;;;;10.34;95.60;100480.13;4875052;29;20053;-73
2023/01/12 10:14:31;;;;;;;2.15;0.40;;;;;;;10.37;95.47;100477.38;4875047;29;20529;-72
2023/01/12 10:17:22;;;;;;;2.05;0.30;;;;;;;10.40;95.73;100472.88;4873245;29;20106;-71
2023/01/12 10:20:09;;;;;;;1.00;0.40;;;;;;;10.46;95.60;100482.34;4873882;29;20057;-72
2023/01/12 10:22:47;;;;;;;0.85;0.28;;;;;;;10.53;95.80;100483.00;4874140;29;20797;-72
2023/01/12 10:25:36;;;;;;;2.28;0.40;;;;;;;10.67;95.07;100485.13;4874232;29;20042;-72
2023/01/12 10:28:09;;;;;;;1.88;0.32;;;;;;;10.71;95.03;100470.94;4866616;29;20041;-71
2023/01/12 10:30:39;;;;;;;2.45;0.50;;;;;;;10.78;94.61;100480.34;4873696;29;20049;-72
2023/01/12 10:33:22;;;;;;;1.92;0.75;;;;;;;10.79;94.26;100479.41;4873815;29;20061;-73
2023/01/12 10:36:08;;;;;;;0.80;0.30;;;;;;;10.75;94.19;100484.88;4874308;29;20048;-73
2023/01/12 10:38:51;;;;;;;1.30;0.20;;;;;;;10.74;94.27;100493.69;4869289;29;20172;-73
2023/01/12 10:41:22;;;;;;;1.05;0.30;;;;;;;10.72;94.26;100489.31;4874692;29;20125;-73
2023/01/12 10:43:55;;;;;;;1.33;0.38;;;;;;;10.74;94.43;100491.06;4873863;29;20144;-72
2023/01/12 10:46:25;;;;;;;1.65;0.30;;;;;;;10.78;94.45;100475.06;4873708;29;20051;-74
2023/01/12 10:49:15;;;;;;;1.33;0.40;;;;;;;10.77;94.53;100481.25;4861041;29;20087;-72
2023/01/12 10:51:58;;;;;;;0.85;0.38;;;;;;;10.81;94.50;100489.91;4855152;29;20095;-73
2023/01/12 10:54:32;;;;;;;0.93;0.30;;;;;;;10.81;94.39;100476.72;4856180;29;20082;-73
2023/01/12 10:57:06;;;;;;;1.45;0.50;;;;;;;10.79;94.27;100482.06;4859449;29;20052;-72
2023/01/12 10:59:38;;;;;;;1.15;0.22;;;;;;;10.77;94.50;100483.03;4873677;29;20485;-73
2023/01/12 11:02:05;;;;;;;1.30;0.38;;;;;;;10.74;94.10;100494.53;4873881;29;20565;-72
2023/01/12 11:04:48;;;;;;;0.45;0.30;;;;;;;10.69;94.59;100496.50;4873316;29;20041;-72
2023/01/12 11:07:25;;;;;;;0.98;0.40;;;;;;;10.67;94.85;100493.03;4868198;29;20134;-73
2023/01/12 11:09:54;;;;;;;0.65;0.35;;;;;;;10.66;95.08;100494.84;4862302;29;20085;-73
2023/01/12 11:12:35;;;;;;;1.17;0.30;;;;;;;10.65;95.17;100493.13;4868982;29;20046;-72
2023/01/12 11:15:08;;;;;;;1.92;1.15;;;;;;;10.64;95.20;100495.78;4873125;29;20053;-72
2023/01/12 11:17:46;;;;;;;2.47;1.65;;;;;;;10.61;95.29;100491.50;4872354;29;20058;-72
2023/01/12 11:20:41;;;;;;;4.97;3.50;;;;;;;10.61;95.11;100488.84;4866648;29;20535;-71
2023/01/12 11:23:16;;;;;;;1.65;0.90;;;;;;;10.60;95.24;100491.56;4859874;29;20133;-72
2023/01/12 11:25:53;;;;;;;0.25;0.25;;;;;;;10.57;95.22;100496.00;4873986;29;20139;-72
2023/01/12 11:28:46;;;;;;;1.73;0.80;;;;;;;10.55;95.33;100494.34;4869794;29;20048;-73
2023/01/12 11:31:27;;;;;;;0.50;0.30;;;;;;;10.52;95.77;100489.19;4872012;29;20045;-72
2023/01/12 11:34:01;;;;;;;2.08;1.23;;;;;;;10.52;95.74;100482.16;4869851;29;20046;-72
2023/01/12 11:36:41;;;;;;;1.20;0.63;;;;;;;10.51;96.02;100482.19;4871365;29;20128;-71
2023/01/12 11:39:26;;;;;;;0.88;0.60;;;;;;;10.48;96.00;100477.91;4867387;29;20069;-71
2023/01/12 11:45:07;;;;;;;9.13;6.68;;;;;;;10.48;96.02;100483.16;4855038;29;20082;-70
2023/01/12 11:47:47;;;;;;;6.30;4.60;;;;;;;10.48;96.33;100477.06;4857865;29;20587;-73
2023/01/12 11:50:28;;;;;;;3.53;3.22;;;;;;;10.56;96.14;100488.19;4855541;29;20631;-73
2023/01/12 11:52:57;;;;;;;1.45;0.75;;;;;;;10.53;96.31;100481.22;4873324;29;20466;-72
2023/01/12 11:55:47;;;;;;;1.75;1.20;;;;;;;10.57;96.06;100479.34;4873331;29;20053;-72
2023/01/12 11:58:33;;;;;;;4.40;3.90;;;;;;;10.60;95.98;100481.84;4871545;29;20098;-72
2023/01/12 12:01:44;;;;;;;0.90;0.52;;;;;;;10.62;96.09;100481.81;4872540;29;20049;-73
2023/01/12 12:04:54;;;;;;;0.52;0.30;;;;;;;10.62;96.28;100476.56;4851151;29;20057;-73
2023/01/12 12:07:39;;;;;;;8.43;5.90;;;;;;;10.61;95.98;100475.66;4857455;29;21188;-74
2023/01/12 12:10:21;;;;;;;3.78;2.38;;;;;;;10.59;96.39;100474.88;4866547;29;21005;-74
2023/01/12 12:13:12;;;;;;;1.77;1.17;;;;;;;10.55;96.61;100474.13;4863698;29;20050;-73
2023/01/12 12:15:53;;;;;;;6.00;4.00;;;;;;;10.52;96.49;100471.63;4873058;29;20667;-73
2023/01/12 12:18:47;;;;;;;1.02;0.45;;;;;;;10.55;96.56;100474.13;4870230;29;20045;-73
2023/01/12 12:21:28;;;;;;;4.53;3.05;;;;;;;10.51;97.10;100483.06;4875932;29;20438;-73
2023/01/12 12:24:19;;;;;;;2.28;1.00;;;;;;;10.52;96.96;100481.28;4876706;29;20045;-73
2023/01/12 12:27:16;;;;;;;24.63;20.77;;;;;;;10.52;97.10;100461.06;4873807;29;20101;-73
2023/01/12 12:30:01;;;;;;;1.15;0.57;;;;;;;10.53;97.16;100460.13;4871449;29;20053;-73
2023/01/12 12:33:05;;;;;;;2.03;1.08;;;;;;;10.53;97.28;100459.28;4870814;29;20046;-73
2023/01/12 12:36:16;;;;;;;0.95;0.60;;;;;;;10.53;97.16;100448.75;4856696;29;20053;-73
2023/01/12 12:39:18;;;;;;;2.35;0.30;;;;;;;10.54;96.80;100453.09;4867312;29;20137;-74
2023/01/12 12:45:17;;;;;;;10.85;6.40;;;;;;;10.53;96.96;100440.84;4858185;29;20132;-75
2023/01/12 12:48:40;;;;;;;2.75;1.52;;;;;;;10.58;96.83;100444.19;4863654;29;20811;-74
2023/01/12 12:51:09;;;;;;;2.03;0.88;;;;;;;10.63;96.55;100446.63;4869903;29;20114;-73
2023/01/12 12:53:50;;;;;;;1.20;0.65;;;;;;;10.67;96.31;100424.50;4874276;29;20049;-73
2023/01/12 12:56:21;;;;;;;4.18;3.75;;;;;;;10.67;96.09;100427.13;4872518;29;20052;-72
2023/01/12 12:58:51;;;;;;;0.98;0.40;;;;;;;10.71;95.34;100429.59;4872019;29;20050;-72
2023/01/12 13:01:18;;;;;;;1.58;0.75;;;;;;;10.75;94.75;100435.63;4864568;29;20050;-73
2023/01/12 13:03:54;;;;;;;1.23;0.40;;;;;;;10.77;94.72;100425.03;4874035;29;20054;-73
2023/01/12 13:06:44;;;;;;;1.42;0.40;;;;;;;10.75;94.72;100425.06;4859568;29;20475;-73
2023/01/12 13:09:11;;;;;;;1.77;0.57;;;;;;;10.78;94.72;100429.38;4872250;29;20816;-73
2023/01/12 13:12:12;;;;;;;2.00;1.00;;;;;;;10.78;94.40;100426.75;4863058;29;20106;-73
2023/01/12 13:14:42;;;;;;;2.67;0.50;;;;;;;10.79;94.56;100425.81;4871736;29;20057;-74
2023/01/12 13:17:18;;;;;;;0.90;0.30;;;;;;;10.78;94.45;100430.25;4858558;29;20054;-75
2023/01/12 13:20:10;;;;;;;1.13;0.52;;;;;;;10.75;95.08;100426.84;4873582;29;20044;-74